Aviation Digital Data Service (ADDS)

Output produced by METARs form (0705 UTC 20 March 2019)
found at http://www.aviationweather.gov/metar/data/
 
METAR text: SCEL 200700Z 00000KT CAVOK 11/M00 Q1015 NOSIG
Conditions at: SCEL (PUDAHUEL/ARTURO , CL) observed 0700 UTC 20 March 2019
Temperature: 11.0°C (52°F)
Dewpoint: 0.0°C (32°F) [RH = 47%]
Pressure (altimeter): 29.97 inches Hg (1015.0 mb)
Winds: calm
Visibility: 6 or more miles (10+ km)
Ceiling: ceiling and visibility are OK
Clouds: unknown
Weather: no significant weather observed at this time

METAR text: SCEL 200600Z 35002KT CAVOK 11/M01 Q1015 NOSIG
Conditions at: SCEL (PUDAHUEL/ARTURO , CL) observed 0600 UTC 20 March 2019
Temperature: 11.0°C (52°F)
Dewpoint: -1.0°C (30°F) [RH = 43%]
Pressure (altimeter): 29.97 inches Hg (1015.0 mb)
Winds: from the N (350 degrees) at 2 MPH (2 knots; 1.0 m/s)
Visibility: 6 or more miles (10+ km)
Ceiling: ceiling and visibility are OK
Clouds: unknown
Weather: no significant weather observed at this time

METAR text: SCEL 200500Z 15005KT CAVOK 15/M00 Q1016 NOSIG
Conditions at: SCEL (PUDAHUEL/ARTURO , CL) observed 0500 UTC 20 March 2019
Temperature: 15.0°C (59°F)
Dewpoint: 0.0°C (32°F) [RH = 36%]
Pressure (altimeter): 30.00 inches Hg (1016.0 mb)
Winds: from the SSE (150 degrees) at 6 MPH (5 knots; 2.6 m/s)
Visibility: 6 or more miles (10+ km)
Ceiling: ceiling and visibility are OK
Clouds: unknown
Weather: no significant weather observed at this time

METAR text: SCEL 200400Z VRB02KT CAVOK 16/M00 Q1016 NOSIG
Conditions at: SCEL (PUDAHUEL/ARTURO , CL) observed 0400 UTC 20 March 2019
Temperature: 16.0°C (61°F)
Dewpoint: 0.0°C (32°F) [RH = 34%]
Pressure (altimeter): 30.00 inches Hg (1016.0 mb)
Winds: variable direction winds at 2 MPH (2 knots; 1.0 m/s)
Visibility: 6 or more miles (10+ km)
Ceiling: ceiling and visibility are OK
Clouds: unknown
Weather: no significant weather observed at this time

METAR text: SCEL 200300Z 17010KT CAVOK 17/M01 Q1016 NOSIG
Conditions at: SCEL (PUDAHUEL/ARTURO , CL) observed 0300 UTC 20 March 2019
Temperature: 17.0°C (63°F)
Dewpoint: -1.0°C (30°F) [RH = 29%]
Pressure (altimeter): 30.00 inches Hg (1016.0 mb)
Winds: from the S (170 degrees) at 12 MPH (10 knots; 5.1 m/s)
Visibility: 6 or more miles (10+ km)
Ceiling: ceiling and visibility are OK
Clouds: unknown
Weather: no significant weather observed at this time

METAR text: SCEL 200200Z 17013KT CAVOK 18/M00 Q1016 NOSIG
Conditions at: SCEL (PUDAHUEL/ARTURO , CL) observed 0200 UTC 20 March 2019
Temperature: 18.0°C (64°F)
Dewpoint: 0.0°C (32°F) [RH = 30%]
Pressure (altimeter): 30.00 inches Hg (1016.0 mb)
Winds: from the S (170 degrees) at 15 MPH (13 knots; 6.7 m/s)
Visibility: 6 or more miles (10+ km)
Ceiling: ceiling and visibility are OK
Clouds: unknown
Weather: no significant weather observed at this time

METAR text: SCEL 200100Z 17009KT CAVOK 19/M00 Q1015 NOSIG
Conditions at: SCEL (PUDAHUEL/ARTURO , CL) observed 0100 UTC 20 March 2019
Temperature: 19.0°C (66°F)
Dewpoint: 0.0°C (32°F) [RH = 28%]
Pressure (altimeter): 29.97 inches Hg (1015.0 mb)
Winds: from the S (170 degrees) at 10 MPH (9 knots; 4.6 m/s)
Visibility: 6 or more miles (10+ km)
Ceiling: ceiling and visibility are OK
Clouds: unknown
Weather: no significant weather observed at this time

METAR text: SCEL 200000Z 19008KT CAVOK 22/M01 Q1015 NOSIG
Conditions at: SCEL (PUDAHUEL/ARTURO , CL) observed 0000 UTC 20 March 2019
Temperature: 22.0°C (72°F)
Dewpoint: -1.0°C (30°F) [RH = 21%]
Pressure (altimeter): 29.97 inches Hg (1015.0 mb)
Winds: from the S (190 degrees) at 9 MPH (8 knots; 4.1 m/s)
Visibility: 6 or more miles (10+ km)
Ceiling: ceiling and visibility are OK
Clouds: unknown
Weather: no significant weather observed at this time

METAR text: SCEL 192300Z 21010KT CAVOK 23/02 Q1014 NOSIG
Conditions at: SCEL (PUDAHUEL/ARTURO , CL) observed 2300 UTC 19 March 2019
Temperature: 23.0°C (73°F)
Dewpoint: 2.0°C (36°F) [RH = 25%]
Pressure (altimeter): 29.94 inches Hg (1014.0 mb)
Winds: from the SSW (210 degrees) at 12 MPH (10 knots; 5.1 m/s)
Visibility: 6 or more miles (10+ km)
Ceiling: ceiling and visibility are OK
Clouds: unknown
Weather: no significant weather observed at this time

METAR text: SCEL 192200Z 16011KT CAVOK 26/M03 Q1014 NOSIG
Conditions at: SCEL (PUDAHUEL/ARTURO , CL) observed 2200 UTC 19 March 2019
Temperature: 26.0°C (79°F)
Dewpoint: -3.0°C (27°F) [RH = 15%]
Pressure (altimeter): 29.94 inches Hg (1014.0 mb)
Winds: from the SSE (160 degrees) at 13 MPH (11 knots; 5.7 m/s)
Visibility: 6 or more miles (10+ km)
Ceiling: ceiling and visibility are OK
Clouds: unknown
Weather: no significant weather observed at this time

METAR text: SCEL 192100Z 17012KT CAVOK 26/M04 Q1014 NOSIG
Conditions at: SCEL (PUDAHUEL/ARTURO , CL) observed 2100 UTC 19 March 2019
Temperature: 26.0°C (79°F)
Dewpoint: -4.0°C (25°F) [RH = 14%]
Pressure (altimeter): 29.94 inches Hg (1014.0 mb)
Winds: from the S (170 degrees) at 14 MPH (12 knots; 6.2 m/s)
Visibility: 6 or more miles (10+ km)
Ceiling: ceiling and visibility are OK
Clouds: unknown
Weather: no significant weather observed at this time

METAR text: SCEL 192000Z 16010KT CAVOK 26/M01 Q1015 NOSIG
Conditions at: SCEL (PUDAHUEL/ARTURO , CL) observed 2000 UTC 19 March 2019
Temperature: 26.0°C (79°F)
Dewpoint: -1.0°C (30°F) [RH = 17%]
Pressure (altimeter): 29.97 inches Hg (1015.0 mb)
Winds: from the SSE (160 degrees) at 12 MPH (10 knots; 5.1 m/s)
Visibility: 6 or more miles (10+ km)
Ceiling: ceiling and visibility are OK
Clouds: unknown
Weather: no significant weather observed at this time

METAR text: SCEL 191900Z 19009KT CAVOK 26/01 Q1016 NOSIG
Conditions at: SCEL (PUDAHUEL/ARTURO , CL) observed 1900 UTC 19 March 2019
Temperature: 26.0°C (79°F)
Dewpoint: 1.0°C (34°F) [RH = 20%]
Pressure (altimeter): 30.00 inches Hg (1016.0 mb)
Winds: from the S (190 degrees) at 10 MPH (9 knots; 4.6 m/s)
Visibility: 6 or more miles (10+ km)
Ceiling: ceiling and visibility are OK
Clouds: unknown
Weather: no significant weather observed at this time

METAR text: SCEL 191800Z 15012KT 130V190 CAVOK 24/01 Q1017 NOSIG
Conditions at: SCEL (PUDAHUEL/ARTURO , CL) observed 1800 UTC 19 March 2019
Temperature: 24.0°C (75°F)
Dewpoint: 1.0°C (34°F) [RH = 22%]
Pressure (altimeter): 30.03 inches Hg (1017.0 mb)
Winds: from the SSE (150 degrees) at 14 MPH (12 knots; 6.2 m/s)
Visibility: 6 or more miles (10+ km)
Ceiling: ceiling and visibility are OK
Clouds: unknown
Weather: no significant weather observed at this time

METAR text: SCEL 191700Z 19011KT 140V210 CAVOK 22/03 Q1017 NOSIG
Conditions at: SCEL (PUDAHUEL/ARTURO , CL) observed 1700 UTC 19 March 2019
Temperature: 22.0°C (72°F)
Dewpoint: 3.0°C (37°F) [RH = 29%]
Pressure (altimeter): 30.03 inches Hg (1017.0 mb)
Winds: from the S (190 degrees) at 13 MPH (11 knots; 5.7 m/s)
Visibility: 6 or more miles (10+ km)
Ceiling: ceiling and visibility are OK
Clouds: unknown
Weather: no significant weather observed at this time

METAR text: SCEL 191600Z 18006KT 130V230 CAVOK 20/05 Q1018 NOSIG
Conditions at: SCEL (PUDAHUEL/ARTURO , CL) observed 1600 UTC 19 March 2019
Temperature: 20.0°C (68°F)
Dewpoint: 5.0°C (41°F) [RH = 37%]
Pressure (altimeter): 30.06 inches Hg (1018.0 mb)
Winds: from the S (180 degrees) at 7 MPH (6 knots; 3.1 m/s)
Visibility: 6 or more miles (10+ km)
Ceiling: ceiling and visibility are OK
Clouds: unknown
Weather: no significant weather observed at this time

METAR text: SCEL 191500Z 21004KT 140V260 CAVOK 19/05 Q1019 NOSIG
Conditions at: SCEL (PUDAHUEL/ARTURO , CL) observed 1500 UTC 19 March 2019
Temperature: 19.0°C (66°F)
Dewpoint: 5.0°C (41°F) [RH = 40%]
Pressure (altimeter): 30.09 inches Hg (1019.0 mb)
Winds: from the SSW (210 degrees) at 5 MPH (4 knots; 2.1 m/s)
Visibility: 6 or more miles (10+ km)
Ceiling: ceiling and visibility are OK
Clouds: unknown
Weather: no significant weather observed at this time

METAR text: SCEL 191400Z VRB02KT CAVOK 17/04 Q1019 NOSIG
Conditions at: SCEL (PUDAHUEL/ARTURO , CL) observed 1400 UTC 19 March 2019
Temperature: 17.0°C (63°F)
Dewpoint: 4.0°C (39°F) [RH = 42%]
Pressure (altimeter): 30.09 inches Hg (1019.0 mb)
Winds: variable direction winds at 2 MPH (2 knots; 1.0 m/s)
Visibility: 6 or more miles (10+ km)
Ceiling: ceiling and visibility are OK
Clouds: unknown
Weather: no significant weather observed at this time

METAR text: SCEL 191300Z VRB02KT CAVOK 14/05 Q1019 NOSIG
Conditions at: SCEL (PUDAHUEL/ARTURO , CL) observed 1300 UTC 19 March 2019
Temperature: 14.0°C (57°F)
Dewpoint: 5.0°C (41°F) [RH = 55%]
Pressure (altimeter): 30.09 inches Hg (1019.0 mb)
Winds: variable direction winds at 2 MPH (2 knots; 1.0 m/s)
Visibility: 6 or more miles (10+ km)
Ceiling: ceiling and visibility are OK
Clouds: unknown
Weather: no significant weather observed at this time

METAR text: SCEL 191200Z VRB02KT 8000 NSC 12/04 Q1019 NOSIG
Conditions at: SCEL (PUDAHUEL/ARTURO , CL) observed 1200 UTC 19 March 2019
Temperature: 12.0°C (54°F)
Dewpoint: 4.0°C (39°F) [RH = 58%]
Pressure (altimeter): 30.09 inches Hg (1019.0 mb)
Winds: variable direction winds at 2 MPH (2 knots; 1.0 m/s)
Visibility: 5 miles ( 8 km)
Ceiling: at least 12,000 feet AGL
Clouds: sky clear below 12,000 feet AGL
Weather: no significant weather observed at this time

METAR text: SCEL 191100Z VRB02KT CAVOK 10/04 Q1019 NOSIG
Conditions at: SCEL (PUDAHUEL/ARTURO , CL) observed 1100 UTC 19 March 2019
Temperature: 10.0°C (50°F)
Dewpoint: 4.0°C (39°F) [RH = 66%]
Pressure (altimeter): 30.09 inches Hg (1019.0 mb)
Winds: variable direction winds at 2 MPH (2 knots; 1.0 m/s)
Visibility: 6 or more miles (10+ km)
Ceiling: ceiling and visibility are OK
Clouds: unknown
Weather: no significant weather observed at this time

METAR text: SCEL 191000Z 00000KT CAVOK 12/04 Q1018 NOSIG
Conditions at: SCEL (PUDAHUEL/ARTURO , CL) observed 1000 UTC 19 March 2019
Temperature: 12.0°C (54°F)
Dewpoint: 4.0°C (39°F) [RH = 58%]
Pressure (altimeter): 30.06 inches Hg (1018.0 mb)
Winds: calm
Visibility: 6 or more miles (10+ km)
Ceiling: ceiling and visibility are OK
Clouds: unknown
Weather: no significant weather observed at this time

METAR text: SCEL 190900Z 13003KT 100V160 CAVOK 13/04 Q1018 NOSIG
Conditions at: SCEL (PUDAHUEL/ARTURO , CL) observed 0900 UTC 19 March 2019
Temperature: 13.0°C (55°F)
Dewpoint: 4.0°C (39°F) [RH = 54%]
Pressure (altimeter): 30.06 inches Hg (1018.0 mb)
Winds: from the SE (130 degrees) at 3 MPH (3 knots; 1.5 m/s)
Visibility: 6 or more miles (10+ km)
Ceiling: ceiling and visibility are OK
Clouds: unknown
Weather: no significant weather observed at this time

METAR text: SCEL 190800Z 18007KT CAVOK 14/04 Q1018 NOSIG
Conditions at: SCEL (PUDAHUEL/ARTURO , CL) observed 0800 UTC 19 March 2019
Temperature: 14.0°C (57°F)
Dewpoint: 4.0°C (39°F) [RH = 51%]
Pressure (altimeter): 30.06 inches Hg (1018.0 mb)
Winds: from the S (180 degrees) at 8 MPH (7 knots; 3.6 m/s)
Visibility: 6 or more miles (10+ km)
Ceiling: ceiling and visibility are OK
Clouds: unknown
Weather: no significant weather observed at this time

METAR text: SCEL 190700Z 18008KT CAVOK 15/03 Q1018 NOSIG
Conditions at: SCEL (PUDAHUEL/ARTURO , CL) observed 0700 UTC 19 March 2019
Temperature: 15.0°C (59°F)
Dewpoint: 3.0°C (37°F) [RH = 44%]
Pressure (altimeter): 30.06 inches Hg (1018.0 mb)
Winds: from the S (180 degrees) at 9 MPH (8 knots; 4.1 m/s)
Visibility: 6 or more miles (10+ km)
Ceiling: ceiling and visibility are OK
Clouds: unknown
Weather: no significant weather observed at this time

METAR text: SCEL 190600Z 16009KT CAVOK 14/04 Q1019 NOSIG
Conditions at: SCEL (PUDAHUEL/ARTURO , CL) observed 0600 UTC 19 March 2019
Temperature: 14.0°C (57°F)
Dewpoint: 4.0°C (39°F) [RH = 51%]
Pressure (altimeter): 30.09 inches Hg (1019.0 mb)
Winds: from the SSE (160 degrees) at 10 MPH (9 knots; 4.6 m/s)
Visibility: 6 or more miles (10+ km)
Ceiling: ceiling and visibility are OK
Clouds: unknown
Weather: no significant weather observed at this time

METAR text: SCEL 190500Z 16007KT CAVOK 16/06 Q1018 NOSIG
Conditions at: SCEL (PUDAHUEL/ARTURO , CL) observed 0500 UTC 19 March 2019
Temperature: 16.0°C (61°F)
Dewpoint: 6.0°C (43°F) [RH = 51%]
Pressure (altimeter): 30.06 inches Hg (1018.0 mb)
Winds: from the SSE (160 degrees) at 8 MPH (7 knots; 3.6 m/s)
Visibility: 6 or more miles (10+ km)
Ceiling: ceiling and visibility are OK
Clouds: unknown
Weather: no significant weather observed at this time

METAR text: SCEL 190400Z 15009KT CAVOK 17/05 Q1018 NOSIG
Conditions at: SCEL (PUDAHUEL/ARTURO , CL) observed 0400 UTC 19 March 2019
Temperature: 17.0°C (63°F)
Dewpoint: 5.0°C (41°F) [RH = 45%]
Pressure (altimeter): 30.06 inches Hg (1018.0 mb)
Winds: from the SSE (150 degrees) at 10 MPH (9 knots; 4.6 m/s)
Visibility: 6 or more miles (10+ km)
Ceiling: ceiling and visibility are OK
Clouds: unknown
Weather: no significant weather observed at this time

METAR text: SCEL 190300Z 16008KT CAVOK 18/07 Q1018 NOSIG
Conditions at: SCEL (PUDAHUEL/ARTURO , CL) observed 0300 UTC 19 March 2019
Temperature: 18.0°C (64°F)
Dewpoint: 7.0°C (45°F) [RH = 49%]
Pressure (altimeter): 30.06 inches Hg (1018.0 mb)
Winds: from the SSE (160 degrees) at 9 MPH (8 knots; 4.1 m/s)
Visibility: 6 or more miles (10+ km)
Ceiling: ceiling and visibility are OK
Clouds: unknown
Weather: no significant weather observed at this time

METAR text: SCEL 190200Z 15006KT CAVOK 19/07 Q1017 NOSIG
Conditions at: SCEL (PUDAHUEL/ARTURO , CL) observed 0200 UTC 19 March 2019
Temperature: 19.0°C (66°F)
Dewpoint: 7.0°C (45°F) [RH = 46%]
Pressure (altimeter): 30.03 inches Hg (1017.0 mb)
Winds: from the SSE (150 degrees) at 7 MPH (6 knots; 3.1 m/s)
Visibility: 6 or more miles (10+ km)
Ceiling: ceiling and visibility are OK
Clouds: unknown
Weather: no significant weather observed at this time

METAR text: SCEL 190100Z 19010KT 9999 SCT180 20/07 Q1017 NOSIG
Conditions at: SCEL (PUDAHUEL/ARTURO , CL) observed 0100 UTC 19 March 2019
Temperature: 20.0°C (68°F)
Dewpoint: 7.0°C (45°F) [RH = 43%]
Pressure (altimeter): 30.03 inches Hg (1017.0 mb)
Winds: from the S (190 degrees) at 12 MPH (10 knots; 5.1 m/s)
Visibility: 6 or more miles (10+ km)
Ceiling: at least 12,000 feet AGL
Clouds: scattered clouds at 18000 feet AGL
Weather: no significant weather observed at this time

METAR text: SCEL 190000Z 21013KT 9999 BKN180 22/07 Q1015 NOSIG
Conditions at: SCEL (PUDAHUEL/ARTURO , CL) observed 0000 UTC 19 March 2019
Temperature: 22.0°C (72°F)
Dewpoint: 7.0°C (45°F) [RH = 38%]
Pressure (altimeter): 29.97 inches Hg (1015.0 mb)
Winds: from the SSW (210 degrees) at 15 MPH (13 knots; 6.7 m/s)
Visibility: 6 or more miles (10+ km)
Ceiling: 18000 feet AGL
Clouds: broken clouds at 18000 feet AGL
Weather: no significant weather observed at this time

METAR text: SCEL 182300Z 21011KT 9999 SCT180 23/06 Q1015 NOSIG
Conditions at: SCEL (PUDAHUEL/ARTURO , CL) observed 2300 UTC 18 March 2019
Temperature: 23.0°C (73°F)
Dewpoint: 6.0°C (43°F) [RH = 33%]
Pressure (altimeter): 29.97 inches Hg (1015.0 mb)
Winds: from the SSW (210 degrees) at 13 MPH (11 knots; 5.7 m/s)
Visibility: 6 or more miles (10+ km)
Ceiling: at least 12,000 feet AGL
Clouds: scattered clouds at 18000 feet AGL
Weather: no significant weather observed at this time

METAR text: SCEL 182200Z 22014KT 9999 SCT170 25/07 Q1015 NOSIG
Conditions at: SCEL (PUDAHUEL/ARTURO , CL) observed 2200 UTC 18 March 2019
Temperature: 25.0°C (77°F)
Dewpoint: 7.0°C (45°F) [RH = 32%]
Pressure (altimeter): 29.97 inches Hg (1015.0 mb)
Winds: from the SW (220 degrees) at 16 MPH (14 knots; 7.2 m/s)
Visibility: 6 or more miles (10+ km)
Ceiling: at least 12,000 feet AGL
Clouds: scattered clouds at 17000 feet AGL
Weather: no significant weather observed at this time

METAR text: SCEL 182100Z 21013KT 170V230 9999 BKN160 26/06 Q1014 NOSIG
Conditions at: SCEL (PUDAHUEL/ARTURO , CL) observed 2100 UTC 18 March 2019
Temperature: 26.0°C (79°F)
Dewpoint: 6.0°C (43°F) [RH = 28%]
Pressure (altimeter): 29.94 inches Hg (1014.0 mb)
Winds: from the SSW (210 degrees) at 15 MPH (13 knots; 6.7 m/s)
Visibility: 6 or more miles (10+ km)
Ceiling: 16000 feet AGL
Clouds: broken clouds at 16000 feet AGL
Weather: no significant weather observed at this time

METAR text: SCEL 182000Z 19013KT 9999 BKN160 26/07 Q1014 NOSIG
Conditions at: SCEL (PUDAHUEL/ARTURO , CL) observed 2000 UTC 18 March 2019
Temperature: 26.0°C (79°F)
Dewpoint: 7.0°C (45°F) [RH = 30%]
Pressure (altimeter): 29.94 inches Hg (1014.0 mb)
Winds: from the S (190 degrees) at 15 MPH (13 knots; 6.7 m/s)
Visibility: 6 or more miles (10+ km)
Ceiling: 16000 feet AGL
Clouds: broken clouds at 16000 feet AGL
Weather: no significant weather observed at this time

Forecast for: SCEL (PUDAHUEL/ARTURO , CL)
Text: TAF SCEL 200405Z 2006/2106 16004KT CAVOK TX28/2019Z TN10/2011Z
Forecast period: 0600 to 1500 UTC 20 March 2019
Forecast type: FROM: standard forecast or significant change
Winds: from the SSE (160 degrees) at 5 MPH (4 knots; 2.1 m/s)
Visibility: 6 or more miles 10+ km)
Ceiling: unknown
Clouds: missing
Weather: no significant weather forecast for this period
Text: TEMPO 2009/2013 VRB02KT 6000 NSC
Forecast period: 0900 to 1300 UTC 20 March 2019
Forecast type: TEMPORARY: The following changes expected for less than half the time period
Winds: variable direction winds at 2 MPH (2 knots; 1.0 m/s)
Visibility: 4 miles (6 km)
Ceiling: unknown
Clouds: missing
Weather: no significant weather forecast for this period
Text: BECMG 2015/2017 18008KT
Forecast period: 1500 to 1900 UTC 20 March 2019
Forecast type: BECOMING: Conditions expected to become as follows by 1700 UTC 20 March 2019
Winds: from the S (180 degrees) at 9 MPH (8 knots; 4.1 m/s)
Visibility: 6 or more miles 10+ km)
Ceiling: unknown
Clouds: missing
Weather: no significant weather forecast for this period
Text: BECMG 2019/2021 21012KT
Forecast period: 1900 UTC 20 March 2019 to 0100 UTC 21 March 2019
Forecast type: BECOMING: Conditions expected to become as follows by 2100 UTC 20 March 2019
Winds: from the SSW (210 degrees) at 14 MPH (12 knots; 6.2 m/s)
Visibility: 6 or more miles 10+ km)
Ceiling: unknown
Clouds: missing
Weather: no significant weather forecast for this period
Text: BECMG 2101/2103 16005KT
Forecast period: 0100 to 0600 UTC 21 March 2019
Forecast type: BECOMING: Conditions expected to become as follows by 0300 UTC 21 March 2019
Winds: from the SSE (160 degrees) at 6 MPH (5 knots; 2.6 m/s)
Visibility: 6 or more miles 10+ km)
Ceiling: unknown
Clouds: missing
Weather: no significant weather forecast for this period